Burns Pinion Ridge Reserve, California Weather observations

Data are for 10 minute period ending at time listed.
 Day   Time   Solar   Ave.   Ave.  Ave.  Vector  Max.   Baro.   Total    
  of    of     Rad.   Air    Rel.  Wind   Wind   Wind  Press.  Precip.   
Year   Day            Temp.  Hum.  Speed  Dir.   Gust                    
2015   (PST)  Kw/m2    F      %     mph   deg.    mph    mb.     in.     
-------------------------------------------------------------------------
 211    8:10   0.14   76.3    58    2.8   249     5.0   880.9    0.00 
 211    8:20   0.18   77.1    56    2.8   255     5.0   881.0    0.00 
 211    8:30   0.28   78.1    55    2.2   245     3.7   881.0    0.00 
 211    8:40   0.34   79.0    53    2.2   242     4.6   881.0    0.00 
 211    8:50   0.31   79.7    50    3.0   216     5.0   881.0    0.00 
 211    9:00   0.27   80.2    50    2.8   196     6.6   881.1    0.00 
 211    9:10   100.00  99999.0   99999  99999.0   99999   99999.0   99999.0   99999.00 
 211    9:20   100.00  99999.0   99999  99999.0   99999   99999.0   99999.0   99999.00 
 211    9:30   100.00  99999.0   99999  99999.0   99999   99999.0   99999.0   99999.00 
 211    9:40   100.00  99999.0   99999  99999.0   99999   99999.0   99999.0   99999.00 
 211    9:50   100.00  99999.0   99999  99999.0   99999   99999.0   99999.0   99999.00 
 211   10:00   100.00  99999.0   99999  99999.0   99999   99999.0   99999.0   99999.00 
 211   10:10   100.00  99999.0   99999  99999.0   99999   99999.0   99999.0   99999.00 
 211   10:20   100.00  99999.0   99999  99999.0   99999   99999.0   99999.0   99999.00 
 211   10:30   100.00  99999.0   99999  99999.0   99999   99999.0   99999.0   99999.00 
 211   10:40   100.00  99999.0   99999  99999.0   99999   99999.0   99999.0   99999.00 
 211   10:50   100.00  99999.0   99999  99999.0   99999   99999.0   99999.0   99999.00 
 211   11:00   100.00  99999.0   99999  99999.0   99999   99999.0   99999.0   99999.00 
 211   11:10   100.00  99999.0   99999  99999.0   99999   99999.0   99999.0   99999.00 
 211   11:20   100.00  99999.0   99999  99999.0   99999   99999.0   99999.0   99999.00 
 211   11:30   100.00  99999.0   99999  99999.0   99999   99999.0   99999.0   99999.00 
 211   11:40   100.00  99999.0   99999  99999.0   99999   99999.0   99999.0   99999.00 
 211   11:50   100.00  99999.0   99999  99999.0   99999   99999.0   99999.0   99999.00 
 211   12:00   100.00  99999.0   99999  99999.0   99999   99999.0   99999.0   99999.00 
 211   12:10   100.00  99999.0   99999  99999.0   99999   99999.0   99999.0   99999.00 
 211   12:20   100.00  99999.0   99999  99999.0   99999   99999.0   99999.0   99999.00 
 211   12:30   100.00  99999.0   99999  99999.0   99999   99999.0   99999.0   99999.00 
 211   12:40   100.00  99999.0   99999  99999.0   99999   99999.0   99999.0   99999.00 
 211   12:50   100.00  99999.0   99999  99999.0   99999   99999.0   99999.0   99999.00 
 211   13:00   100.00  99999.0   99999  99999.0   99999   99999.0   99999.0   99999.00 
 211   13:10   1.04   86.6    36    4.3    88    11.0   880.1    0.00 
 211   13:20   1.14   86.6    34    5.2    97    10.0   880.0    0.00 
 211   13:30   1.08   84.7    36   11.4   108    18.9   880.0    0.00 
 211   13:40   0.37   80.9    40   11.7   111    19.4   880.0    0.00 
 211   13:50   0.16   80.0    35    8.6   117    16.4   879.7    0.00 
 211   14:00   0.67   82.9    32    5.5   106    12.2   879.7    0.00 
 211   14:10   0.86   85.2    31    6.4    88    13.7   879.5    0.00 
 211   14:20   0.83   86.7    31    7.4   111    15.5   879.3    0.00 
 211   14:30   0.81   86.8    31    7.6   116    13.1   879.2    0.00 
 211   14:40   0.79   87.7    30    7.7   127    12.5   879.1    0.00 
 211   14:50   0.60   86.6    32    6.8    99    11.9   879.0    0.00 
 211   15:00   0.30   84.2    38    5.9    90    14.8   878.9    0.00 
 211   15:10   0.58   83.5    39    6.4    68    13.3   878.9    0.00 
 211   15:20   0.59   85.5    35    6.2   107    11.8   878.8    0.00 
 211   15:30   0.41   83.8    39    6.3    98    12.6   878.8    0.00 
 211   15:40   0.23   83.2    38    5.9    73    11.2   878.9    0.00 
 211   15:50   0.17   82.1    38    5.6    73    13.2   878.9    0.00 
 211   16:00   0.17   81.7    40    4.8    52     8.1   878.8    0.00 
 211   16:10   0.17   80.8    42    5.7    38     8.6   878.7    0.00 
 211   16:20   0.16   80.9    40    4.5    42     6.6   878.6    0.00 
 211   16:30   0.14   81.2    39    4.5    96     8.6   878.7    0.00 
 211   16:40   0.12   82.0    37    2.4   114     4.2   878.8    0.00 
 211   16:50   0.12   82.9    36    2.6   129     5.9   878.8    0.00 
 211   17:00   0.12   83.1    35    1.2   138     4.1   878.7    0.00 
 211   17:10   0.10   83.3    34    0.8   335     2.3   878.7    0.00 
 211   17:20   0.08   82.9    35    2.0     1     4.0   878.8    0.00 
 211   17:30   0.08   83.1    35    0.5   316     2.6   878.8    0.00 
 211   17:40   0.07   83.2    35    1.9   206     4.4   879.0    0.00 
 211   17:50   0.07   83.3    35    0.7   225     2.9   879.1    0.00 
 211   18:00   0.05   83.2    35    1.2   155     3.3   879.3    0.00 
 211   18:10   0.03   82.7    36    2.5   121     3.7   879.6    0.00 
 211   18:20   0.01   82.4    36    3.6   118     5.8   879.7    0.00 
 211   18:30   0.01   80.8    43    5.0    96    12.6   879.8    0.00 
 211   18:40   0.01   78.2    51    6.9   106    19.1   880.0    0.00 
 211   18:50   0.00   76.8    57    6.6   107    11.6   880.0    0.00 
 211   19:00   0.00   76.3    59    6.3   104    11.8   880.0    0.00 
 211   19:10   0.00   76.2    59    7.9   108    15.7   880.0    0.00 
 211   19:20   0.00   75.8    59    5.5    93    13.6   880.3    0.00 
 211   19:30   0.00   75.2    58    6.5   108    10.6   880.4    0.00 
 211   19:40   0.00   75.3    57    6.9   115    11.7   880.4    0.00 
 211   19:50   0.00   75.5    56    6.2   111    13.5   880.5    0.00 
 211   20:00   0.00   75.3    57    5.5   111    11.8   880.5    0.00 
 211   20:10   0.00   74.8    59    6.2    90    13.7   880.6    0.00 
 211   20:20   0.00   74.2    61    4.5    90     9.9   880.6    0.00 
 211   20:30   0.00   73.8    62    4.3   125     8.6   880.6    0.00 
 211   20:40   0.00   73.5    63    4.8   142     8.0   880.6    0.00 
 211   20:50   0.00   73.5    62    2.1   160     6.5   880.7    0.00 
 211   21:00   0.00   73.1    62    2.0   333     4.5   880.8    0.00 
 211   21:10   0.00   72.9    64    3.2     7     6.6   880.7    0.00 
 211   21:20   0.00   73.3    61    1.0   282     3.3   880.6    0.00 
 211   21:30   0.00   73.5    61    4.1   290     6.9   880.7    0.00 
 211   21:40   0.00   73.7    59    3.9   253     6.9   880.7    0.00 
 211   21:50   0.00   74.7    52    5.2   213     8.6   880.5    0.00 
 211   22:00   0.00   75.0    53    4.6   244     6.9   880.4    0.00 
 211   22:10   0.00   74.7    54    3.5   244     5.0   880.3    0.00 
 211   22:20   0.00   74.6    53    3.7   258     5.4   880.2    0.00 
 211   22:30   0.00   73.9    54    3.6   271     4.9   880.0    0.00 
 211   22:40   0.00   73.7    53    3.7   271     6.1   879.8    0.00 
 211   22:50   0.00   73.9    52    3.3   256     5.8   879.7    0.00 
 211   23:00   0.00   75.1    49    4.0   246     7.7   879.6    0.00 
 211   23:10   0.00   75.4    49    3.5   246     6.2   879.6    0.00 
 211   23:20   0.00   75.7    48    2.8   241     5.9   879.6    0.00 
 211   23:30   0.00   75.6    49    3.3   231     6.9   879.6    0.00 
 211   23:40   0.00   75.3    50    3.1   226     6.4   879.5    0.00 
 211   23:50   0.00   75.1    50    2.7   225     5.5   879.4    0.00 
 212    0:00   0.00   74.5    51    3.2   215     5.8   879.4    0.00 
 212    0:10   0.00   74.5    52    2.4   161     4.1   879.4    0.00 
 212    0:20   0.00   73.5    54    2.5   164     5.1   879.4    0.00 
 212    0:30   0.00   73.4    54    3.1   167     5.0   879.3    0.00 
 212    0:40   0.00   73.2    54    3.3   157     4.5   879.3    0.00 
 212    0:50   0.00   73.3    55    2.7   178     5.4   879.1    0.00 
 212    1:00   0.00   73.3    55    2.3   187     4.2   879.0    0.00 
 212    1:10   0.00   72.9    56    2.3   199     4.9   879.0    0.00 
 212    1:20   0.00   72.2    57    3.0   222     6.4   878.8    0.00 
 212    1:30   0.00   73.8    54    4.3   223     7.5   878.8    0.00 
 212    1:40   0.00   75.0    51    5.0   230     8.2   878.7    0.00 
 212    1:50   0.00   74.9    51    4.0   240     6.0   878.7    0.00 
 212    2:00   0.00   75.0    51    4.5   244     6.8   878.7    0.00 
 212    2:10   0.00   75.4    50    4.9   241     7.7   878.7    0.00 
 212    2:20   0.00   75.9    48    4.5   239     8.6   878.7    0.00 
 212    2:30   0.00   76.1    48    4.7   232     7.8   878.7    0.00 
 212    2:40   0.00   75.7    48    4.1   236     6.8   878.7    0.00 
 212    2:50   0.00   75.6    48    4.2   232     7.3   878.6    0.00 
 212    3:00   0.00   76.0    48    4.4   235     6.7   878.6    0.00 
 212    3:10   0.00   75.9    48    3.9   234     6.6   878.6    0.00 
 212    3:20   0.00   75.7    49    3.9   231     6.2   878.6    0.00 
 212    3:30   0.00   75.5    49    3.1   232     5.4   878.5    0.00 
 212    3:40   0.00   75.1    50    3.2   244     5.7   878.4    0.00 
 212    3:50   0.00   74.2    51    2.5   236     4.1   878.5    0.00 
 212    4:00   0.00   72.8    54    3.0   218     4.2   878.5    0.00 
 212    4:10   0.00   72.2    55    1.9   170     3.1   878.5    0.00 
 212    4:20   0.00   71.0    58    2.3   145     3.1   878.5    0.00 
 212    4:30   0.00   70.3    59    2.9   148     4.2   878.5    0.00 
 212    4:40   0.00   70.4    59    3.2   166     3.9   878.5    0.00 
 212    4:50   0.00   70.0    60    3.1   160     3.9   878.6    0.00 
 212    5:00   0.00   70.4    59    3.0   142     3.6   878.6    0.00 
 212    5:10   0.01   69.6    61    2.4   104     3.9   878.7    0.00 
 212    5:20   0.01   68.7    63    2.3    55     3.4   878.8    0.00 
 212    5:30   0.01   69.2    62    1.2    51     1.9   878.9    0.00 
 212    5:40   0.03   69.8    61    2.1    58     3.8   879.0    0.00 
 212    5:50   0.07   72.6    56    2.7    48     5.0   879.1    0.00 
 212    6:00   0.11   76.0    50    2.2    48     4.1   879.4    0.00 
 212    6:10   0.13   78.5    45    0.2    24     2.1   879.6    0.00 
 212    6:20   0.18   81.4    41    0.7   148     3.3   879.7    0.00 
 212    6:30   0.21   78.0    48    3.0   134     5.1   879.9    0.00 
 212    6:40   0.25   77.5    48    4.1   132     5.9   880.1    0.00 
 212    6:50   0.30   78.9    45    2.7   128     4.3   880.2    0.00 
 212    7:00   0.34   80.2    43    3.0   129     4.5   880.2    0.00 
 212    7:10   0.37   81.6    40    1.8   132     3.9   880.3    0.00 
 212    7:20   0.40   83.7    36    0.8   128     2.6   880.3    0.00 
 212    7:30   0.44   84.2    36    0.7   285     3.7   880.2    0.00 
 212    7:40   0.46   84.7    35    3.5   141     5.7   880.2    0.00 
 212    7:50   0.51   83.5    37    3.7   138     6.5   880.2    0.00 
 212    8:00   0.55   84.6    35    2.9   149     6.4   880.2    0.00 

Return to Burns Pinion Ridge Reserve graphs page.


Western Regional Climate Center,wrcc@dri.edu